Leverett, Mississippi
Current Conditions -  °F | °C
As of 10:35 AM on Friday 21 Nov 2014 (Local Time) from KGNF Reporting Station
Broken Clouds Broken Clouds  
Wind Chill: 54°   Ceiling: 9000
Heat Index: 54°   Visibility: 10mi
Dew Point: 46°   Wind: 8mph
Humidity: 77%   Direction: 100°E
Pressure: 30.35"   Gusts: NA
Location:  33.8947°N, 90.0323°W
Report Text: KGNF 211635Z AUTO 10007KT 10SM BKN090 12/08 A3035 RMK AO2
Loading
Personal Weather Stations






























Interactive Weather Map New forecast layout! Learn more

10-Day Weather Forecast

Advertisements
Track Severe Weather on mobile